createdAt,value
2023-04-02T00:00:17.701Z,98.86
2023-04-02T00:03:07.430Z,98.25
2023-04-02T00:05:52.695Z,97.33
2023-04-02T00:08:40.031Z,97.87
2023-04-02T00:11:35.561Z,97.74
2023-04-02T00:14:31.339Z,98.94
2023-04-02T00:17:17.022Z,98.79
2023-04-02T00:20:07.307Z,97.67
2023-04-02T00:22:54.382Z,97.52
2023-04-02T00:25:42.694Z,95.96
2023-04-02T00:28:27.781Z,96.04
2023-04-02T00:31:13.678Z,96.73
2023-04-02T00:34:01.651Z,97.61
2023-04-02T00:36:48.235Z,97.49
2023-04-02T00:39:38.930Z,97.21
2023-04-02T00:42:24.825Z,97.97
2023-04-02T00:45:21.894Z,97.51
2023-04-02T00:48:33.493Z,97.83
2023-04-02T00:51:30.781Z,96.81
2023-04-02T00:54:21.756Z,97.02
2023-04-02T00:57:15.358Z,96.46
2023-04-02T01:00:02.653Z,97.41
2023-04-02T01:03:18.898Z,97.02
2023-04-02T01:06:17.038Z,96.80
2023-04-02T01:09:36.228Z,97.68
2023-04-02T01:12:57.825Z,96.56
2023-04-02T01:16:05.330Z,96.01
2023-04-02T01:19:05.679Z,94.85
2023-04-02T01:22:13.623Z,94.73
2023-04-02T01:24:59.573Z,94.70
2023-04-02T01:28:20.312Z,95.95
2023-04-02T01:31:05.948Z,96.26
2023-04-02T01:33:51.471Z,95.54
2023-04-02T01:36:43.719Z,95.71
2023-04-02T01:39:55.196Z,93.78
2023-04-02T01:43:02.561Z,94.05
2023-04-02T01:45:48.312Z,93.55
2023-04-02T01:48:34.004Z,90.68
2023-04-02T01:51:28.778Z,91.58
2023-04-02T01:54:17.171Z,92.15
2023-04-02T01:57:02.288Z,91.75
2023-04-02T01:59:47.650Z,91.32
2023-04-02T02:02:33.236Z,91.85
2023-04-02T02:05:21.606Z,91.68
2023-04-02T02:08:23.407Z,91.71
2023-04-02T02:11:14.391Z,90.70
2023-04-02T02:14:18.811Z,90.54
2023-04-02T02:17:07.496Z,90.97
2023-04-02T02:19:56.814Z,91.29
2023-04-02T02:22:48.475Z,90.57
2023-04-02T02:25:35.451Z,90.80
2023-04-02T02:28:27.806Z,90.56
2023-04-02T02:31:19.507Z,90.36
2023-04-02T02:34:16.879Z,91.69
2023-04-02T02:37:28.577Z,90.53
2023-04-02T02:40:24.145Z,90.94
2023-04-02T02:43:13.159Z,91.33
2023-04-02T02:45:59.683Z,90.34
2023-04-02T02:48:46.396Z,90.06
2023-04-02T02:51:50.814Z,90.07
2023-04-02T02:54:50.826Z,89.84
2023-04-02T02:57:40.246Z,89.00
2023-04-02T03:00:26.473Z,88.67
2023-04-02T03:03:18.009Z,89.91
2023-04-02T03:06:10.070Z,89.08
2023-04-02T03:09:10.066Z,90.24
2023-04-02T03:12:13.608Z,90.36
2023-04-02T03:15:18.138Z,91.02
2023-04-02T03:18:32.788Z,91.94
2023-04-02T03:21:43.552Z,91.42
2023-04-02T03:24:34.614Z,91.43
2023-04-02T03:27:26.007Z,91.19
2023-04-02T03:30:35.553Z,90.42
2023-04-02T03:33:23.849Z,90.09
2023-04-02T03:36:20.166Z,90.89
2023-04-02T03:39:33.644Z,90.73
2023-04-02T03:42:25.342Z,91.15
2023-04-02T03:45:22.557Z,91.27
2023-04-02T03:48:18.576Z,91.61
2023-04-02T03:51:13.574Z,91.01
2023-04-02T03:53:59.497Z,91.67
2023-04-02T03:56:46.090Z,93.02
2023-04-02T04:00:02.701Z,92.50
2023-04-02T04:02:53.077Z,90.69
2023-04-02T04:05:52.042Z,92.26
2023-04-02T04:08:49.215Z,92.92
2023-04-02T04:11:39.223Z,92.50
2023-04-02T04:14:35.454Z,93.84
2023-04-02T04:17:56.550Z,92.22
2023-04-02T04:20:54.936Z,92.60
2023-04-02T04:23:49.922Z,92.41
2023-04-02T04:26:45.902Z,92.79
2023-04-02T04:30:03.451Z,92.58
2023-04-02T04:32:56.202Z,92.89
2023-04-02T04:35:53.469Z,93.28
2023-04-02T04:38:42.324Z,93.00
2023-04-02T04:41:38.720Z,93.16
2023-04-02T04:44:59.543Z,93.29
2023-04-02T04:47:55.856Z,92.76
2023-04-02T04:50:58.095Z,92.98
2023-04-02T04:53:50.724Z,93.00
2023-04-02T04:56:39.883Z,92.74
2023-04-02T04:59:44.268Z,92.11
2023-04-02T05:02:38.342Z,92.66
2023-04-02T05:05:29.427Z,93.21
2023-04-02T05:08:27.714Z,93.30
2023-04-02T05:11:27.837Z,93.07
2023-04-02T05:14:22.352Z,93.24
2023-04-02T05:17:27.527Z,92.66
2023-04-02T05:20:22.325Z,93.26
2023-04-02T05:23:26.559Z,94.67
2023-04-02T05:26:38.786Z,94.09
2023-04-02T05:29:32.050Z,95.05
2023-04-02T05:32:23.229Z,95.25
2023-04-02T05:35:16.117Z,94.19
2023-04-02T05:38:02.425Z,93.33
2023-04-02T05:40:58.484Z,93.50
2023-04-02T05:43:48.069Z,94.23
2023-04-02T05:46:45.630Z,94.53
2023-04-02T05:49:46.516Z,94.60
2023-04-02T05:52:37.820Z,94.01
2023-04-02T05:55:36.461Z,93.68
2023-04-02T05:58:36.102Z,93.32
2023-04-02T06:01:45.690Z,92.65
2023-04-02T06:04:52.809Z,93.32
2023-04-02T06:07:55.789Z,93.45
2023-04-02T06:11:12.102Z,93.15
2023-04-02T06:14:00.774Z,94.03
2023-04-02T06:16:46.763Z,94.50
2023-04-02T06:19:37.327Z,94.32
2023-04-02T06:22:36.990Z,93.74
2023-04-02T06:25:38.734Z,92.42
2023-04-02T06:28:34.264Z,92.15
2023-04-02T06:31:47.419Z,92.85
2023-04-02T06:34:38.776Z,92.36
2023-04-02T06:37:33.465Z,92.28
2023-04-02T06:40:38.912Z,92.10
2023-04-02T06:43:32.526Z,92.55
2023-04-02T06:46:40.200Z,93.29
2023-04-02T06:49:43.314Z,92.19
2023-04-02T06:52:36.198Z,92.88
2023-04-02T06:55:37.154Z,92.50
2023-04-02T06:58:22.783Z,92.35
2023-04-02T07:01:17.832Z,92.90
2023-04-02T07:04:03.509Z,92.22
2023-04-02T07:06:54.611Z,93.42
2023-04-02T07:09:42.623Z,93.29
2023-04-02T07:12:28.372Z,94.55
2023-04-02T07:15:18.014Z,94.62
2023-04-02T07:18:04.309Z,94.84
2023-04-02T07:20:50.636Z,94.02
2023-04-02T07:23:37.527Z,94.10
2023-04-02T07:26:25.584Z,93.38
2023-04-02T07:29:15.372Z,93.39
2023-04-02T07:32:00.631Z,93.09
2023-04-02T07:34:46.142Z,92.99
2023-04-02T07:37:31.863Z,93.25
2023-04-02T07:40:20.716Z,93.65
2023-04-02T07:43:06.983Z,94.03
2023-04-02T07:45:52.539Z,93.40
2023-04-02T07:48:37.787Z,93.61
2023-04-02T07:51:26.052Z,94.19
2023-04-02T07:54:11.469Z,94.86
2023-04-02T07:56:56.915Z,94.52
2023-04-02T07:59:42.293Z,94.85
2023-04-02T08:02:27.847Z,94.76
2023-04-02T08:05:13.769Z,95.84
2023-04-02T08:07:58.986Z,94.51
2023-04-02T08:10:44.290Z,94.22
2023-04-02T08:13:29.523Z,94.19
2023-04-02T08:16:15.206Z,95.35
2023-04-02T08:19:00.336Z,94.92
2023-04-02T08:21:46.426Z,96.10
2023-04-02T08:24:31.527Z,95.79
2023-04-02T08:27:16.778Z,95.76
2023-04-02T08:30:02.344Z,96.63
2023-04-02T08:32:47.923Z,95.79
2023-04-02T08:35:34.439Z,96.17
2023-04-02T08:38:21.384Z,96.40
2023-04-02T08:41:07.235Z,95.40
2023-04-02T08:44:18.440Z,96.75
2023-04-02T08:47:06.441Z,95.80
2023-04-02T08:50:00.980Z,96.55
2023-04-02T08:52:46.474Z,96.16
2023-04-02T08:55:38.977Z,95.88
2023-04-02T08:58:38.662Z,96.97
2023-04-02T09:01:40.295Z,96.54
2023-04-02T09:04:26.099Z,97.26
2023-04-02T09:07:16.295Z,96.98
2023-04-02T09:10:02.075Z,97.63
2023-04-02T09:12:52.054Z,97.50
2023-04-02T09:15:37.719Z,96.75
2023-04-02T09:18:23.298Z,96.60
2023-04-02T09:21:23.584Z,98.21
2023-04-02T09:24:11.833Z,98.01
2023-04-02T09:26:57.050Z,98.27
2023-04-02T09:29:47.828Z,96.95
2023-04-02T09:32:48.373Z,97.34
2023-04-02T09:35:36.794Z,96.58
2023-04-02T09:38:23.753Z,96.68
2023-04-02T09:41:20.585Z,96.91
2023-04-02T09:44:27.303Z,97.71
2023-04-02T09:47:25.508Z,96.49
2023-04-02T09:50:34.687Z,95.60
2023-04-02T09:53:33.233Z,95.54
2023-04-02T09:56:23.081Z,95.80
2023-04-02T09:59:19.815Z,95.35
2023-04-02T10:02:25.175Z,94.88
2023-04-02T10:05:30.044Z,95.66
2023-04-02T10:08:27.675Z,92.95
2023-04-02T10:11:21.686Z,93.57
2023-04-02T10:14:18.040Z,92.37
2023-04-02T10:17:17.568Z,93.32
2023-04-02T10:20:08.814Z,91.97
2023-04-02T10:22:54.173Z,91.92
2023-04-02T10:25:45.993Z,91.28
2023-04-02T10:28:53.041Z,92.35
2023-04-02T10:31:50.900Z,92.58
2023-04-02T10:34:43.978Z,91.15
2023-04-02T10:37:56.848Z,90.11
2023-04-02T10:40:44.913Z,88.67
2023-04-02T10:43:36.322Z,88.67
2023-04-02T10:46:42.548Z,88.06
2023-04-02T10:49:48.215Z,88.85
2023-04-02T10:52:45.202Z,88.92
2023-04-02T10:55:33.985Z,88.31
2023-04-02T10:58:28.941Z,87.00
2023-04-02T11:01:24.140Z,86.95
2023-04-02T11:04:27.471Z,87.70
2023-04-02T11:07:19.174Z,86.31
2023-04-02T11:10:06.277Z,85.28
2023-04-02T11:13:26.365Z,88.33
2023-04-02T11:16:13.276Z,84.63
2023-04-02T11:19:24.448Z,86.38
2023-04-02T11:22:24.083Z,84.95
2023-04-02T11:25:21.919Z,85.01
2023-04-02T11:28:28.252Z,84.02
2023-04-02T11:31:20.842Z,85.75
2023-04-02T11:34:06.445Z,83.76
2023-04-02T11:36:56.386Z,82.84
2023-04-02T11:39:54.868Z,83.11
2023-04-02T11:42:48.624Z,83.61
2023-04-02T11:45:52.646Z,82.28
2023-04-02T11:48:39.219Z,82.28
2023-04-02T11:51:24.432Z,81.21
2023-04-02T11:54:26.345Z,82.09
2023-04-02T11:57:26.289Z,81.70
2023-04-02T12:00:40.435Z,79.60
2023-04-02T12:03:44.280Z,82.32
2023-04-02T12:06:50.829Z,80.95
2023-04-02T12:09:54.646Z,82.86
2023-04-02T12:12:40.412Z,82.52
2023-04-02T12:15:34.843Z,79.95
2023-04-02T12:18:24.296Z,82.79
2023-04-02T12:21:15.936Z,81.15
2023-04-02T12:24:03.549Z,81.16
2023-04-02T12:26:49.464Z,81.64
2023-04-02T12:29:34.634Z,79.40
2023-04-02T12:32:30.610Z,82.16
2023-04-02T12:35:32.604Z,80.97
2023-04-02T12:38:29.549Z,81.31
2023-04-02T12:41:32.990Z,82.19
2023-04-02T12:44:20.764Z,79.44
2023-04-02T12:47:06.278Z,79.65
2023-04-02T12:49:52.540Z,80.73
2023-04-02T12:52:45.585Z,80.91
2023-04-02T12:55:30.793Z,80.30
2023-04-02T12:58:39.910Z,80.98
2023-04-02T13:01:27.696Z,80.59
2023-04-02T13:04:13.445Z,81.62
2023-04-02T13:06:58.717Z,78.97
2023-04-02T13:09:55.599Z,78.63
2023-04-02T13:12:41.466Z,79.54
2023-04-02T13:15:32.446Z,80.27
2023-04-02T13:18:20.501Z,78.13
2023-04-02T13:21:28.547Z,78.54
2023-04-02T13:24:36.134Z,78.21
2023-04-02T13:27:21.709Z,77.23
2023-04-02T13:30:20.030Z,79.13
2023-04-02T13:33:05.654Z,79.30
2023-04-02T13:35:51.011Z,80.42
2023-04-02T13:38:36.215Z,78.73
2023-04-02T13:41:23.990Z,78.68
2023-04-02T13:44:20.542Z,79.59
2023-04-02T13:47:05.716Z,78.87
2023-04-02T13:49:51.176Z,77.16
2023-04-02T13:52:36.272Z,75.98
2023-04-02T13:55:24.446Z,75.24
2023-04-02T13:58:10.368Z,75.35
2023-04-02T14:00:55.914Z,74.98
2023-04-02T14:03:41.546Z,75.98
2023-04-02T14:06:32.854Z,76.29
2023-04-02T14:09:29.757Z,74.83
2023-04-02T14:12:21.324Z,76.15
2023-04-02T14:15:43.362Z,75.82
2023-04-02T14:19:18.101Z,77.07
2023-04-02T14:22:49.074Z,76.74
2023-04-02T14:26:12.108Z,77.26
2023-04-02T14:29:11.334Z,76.87
2023-04-02T14:32:23.197Z,75.74
2023-04-02T14:35:14.459Z,76.34
2023-04-02T14:38:13.856Z,75.98
2023-04-02T14:41:17.581Z,76.83
2023-04-02T14:44:07.564Z,77.96
2023-04-02T14:47:02.041Z,75.72
2023-04-02T14:49:50.531Z,75.11
2023-04-02T14:52:37.537Z,74.94
2023-04-02T14:55:39.430Z,75.40
2023-04-02T14:58:34.713Z,77.21
2023-04-02T15:01:32.209Z,76.30
2023-04-02T15:04:23.101Z,76.60
2023-04-02T15:07:22.141Z,75.95
2023-04-02T15:10:20.481Z,74.61
2023-04-02T15:13:12.242Z,75.15
2023-04-02T15:16:16.468Z,74.92
2023-04-02T15:19:04.410Z,75.61
2023-04-02T15:22:26.678Z,74.59
2023-04-02T15:25:37.473Z,72.18
2023-04-02T15:28:28.358Z,72.55
2023-04-02T15:31:14.666Z,71.74
2023-04-02T15:34:08.673Z,71.92
2023-04-02T15:37:28.259Z,70.84
2023-04-02T15:40:35.705Z,71.40
2023-04-02T15:43:24.478Z,70.90
2023-04-02T15:46:15.812Z,70.81
2023-04-02T15:49:19.222Z,67.70
2023-04-02T15:52:29.702Z,67.79
2023-04-02T15:55:38.313Z,69.13
2023-04-02T15:58:42.511Z,69.03
2023-04-02T16:01:56.963Z,69.24
2023-04-02T16:04:46.179Z,69.88
2023-04-02T16:07:57.294Z,68.25
2023-04-02T16:10:43.385Z,66.87
2023-04-02T16:13:32.954Z,69.71
2023-04-02T16:16:25.962Z,69.43
2023-04-02T16:19:41.734Z,68.93
2023-04-02T16:22:30.281Z,67.89
2023-04-02T16:25:19.849Z,66.81
2023-04-02T16:28:43.674Z,65.85
2023-04-02T16:31:37.623Z,66.30
2023-04-02T16:35:31.147Z,65.04
2023-04-02T16:38:51.699Z,65.38
2023-04-02T16:42:16.790Z,63.92
2023-04-02T16:45:19.304Z,62.85
2023-04-02T16:48:18.514Z,62.86
2023-04-02T16:51:27.101Z,65.09
2023-04-02T16:54:30.481Z,66.09
2023-04-02T16:57:23.911Z,64.26
2023-04-02T17:00:24.344Z,65.87
2023-04-02T17:03:21.676Z,64.67
2023-04-02T17:06:18.819Z,64.24
2023-04-02T17:09:22.612Z,64.02
2023-04-02T17:12:39.736Z,63.67
2023-04-02T17:15:34.731Z,62.99
2023-04-02T17:18:21.765Z,62.96
2023-04-02T17:21:10.429Z,63.34
2023-04-02T17:24:02.314Z,64.39
2023-04-02T17:26:53.258Z,64.29
2023-04-02T17:29:43.087Z,63.69
2023-04-02T17:32:33.485Z,64.31
2023-04-02T17:35:32.973Z,64.91
2023-04-02T17:38:35.379Z,65.68
2023-04-02T17:41:39.042Z,64.09
2023-04-02T17:44:42.695Z,63.96
2023-04-02T17:47:46.411Z,64.18
2023-04-02T17:50:37.869Z,63.96
2023-04-02T17:53:34.453Z,63.73
2023-04-02T17:56:48.726Z,63.72
2023-04-02T17:59:42.792Z,63.04
2023-04-02T18:02:46.577Z,64.12
2023-04-02T18:05:54.294Z,64.70
2023-04-02T18:08:42.497Z,66.20
2023-04-02T18:11:43.334Z,67.07
2023-04-02T18:14:46.695Z,65.76
2023-04-02T18:17:53.550Z,66.02
2023-04-02T18:21:12.929Z,64.21
2023-04-02T18:24:37.330Z,64.33
2023-04-02T18:27:37.625Z,64.83
2023-04-02T18:30:38.206Z,64.54
2023-04-02T18:33:43.439Z,63.84
2023-04-02T18:36:57.446Z,64.67
2023-04-02T18:39:45.727Z,66.59
2023-04-02T18:42:55.826Z,66.29
2023-04-02T18:45:59.498Z,67.33
2023-04-02T18:48:54.292Z,68.94
2023-04-02T18:51:40.299Z,70.31
2023-04-02T18:54:33.920Z,69.62
2023-04-02T18:57:28.731Z,68.83
2023-04-02T19:00:41.178Z,68.89
2023-04-02T19:03:32.704Z,67.77
2023-04-02T19:06:28.502Z,67.26
2023-04-02T19:09:13.978Z,66.67
2023-04-02T19:11:59.165Z,66.48
2023-04-02T19:14:45.203Z,66.20
2023-04-02T19:17:41.361Z,66.54
2023-04-02T19:20:37.585Z,67.45
2023-04-02T19:23:49.174Z,67.22
2023-04-02T19:26:49.194Z,66.97
2023-04-02T19:29:56.285Z,67.01
2023-04-02T19:33:16.548Z,67.69
2023-04-02T19:36:07.992Z,67.54
2023-04-02T19:38:56.392Z,67.44
2023-04-02T19:41:46.712Z,67.51
2023-04-02T19:44:31.973Z,68.19
2023-04-02T19:47:18.733Z,67.33
2023-04-02T19:50:04.178Z,66.33
2023-04-02T19:52:49.366Z,67.54
2023-04-02T19:55:35.207Z,66.47
2023-04-02T19:58:28.188Z,66.11
2023-04-02T20:01:14.077Z,66.18
2023-04-02T20:03:59.272Z,66.78
2023-04-02T20:06:45.150Z,66.90
2023-04-02T20:09:30.358Z,67.85
2023-04-02T20:12:15.591Z,67.84
2023-04-02T20:15:01.146Z,68.04
2023-04-02T20:17:46.305Z,69.55
2023-04-02T20:20:32.001Z,69.33
2023-04-02T20:23:17.860Z,69.18
2023-04-02T20:26:04.548Z,69.97
2023-04-02T20:28:50.064Z,69.76
2023-04-02T20:31:35.401Z,69.96
2023-04-02T20:34:21.265Z,70.02
2023-04-02T20:37:06.272Z,70.08
2023-04-02T20:39:51.634Z,70.27
2023-04-02T20:42:37.033Z,71.28
2023-04-02T20:45:22.331Z,71.26
2023-04-02T20:48:07.852Z,70.92
2023-04-02T20:50:53.645Z,70.70
2023-04-02T20:53:38.755Z,71.07
2023-04-02T20:56:24.331Z,71.54
2023-04-02T20:59:09.687Z,70.75
2023-04-02T21:01:55.030Z,71.10
2023-04-02T21:04:40.004Z,70.84
2023-04-02T21:07:25.634Z,71.35
2023-04-02T21:10:10.865Z,70.82
2023-04-02T21:12:56.684Z,72.18
2023-04-02T21:15:41.869Z,71.26
2023-04-02T21:18:26.853Z,71.61
2023-04-02T21:21:13.896Z,71.69
2023-04-02T21:24:04.859Z,72.06
2023-04-02T21:26:50.363Z,71.97
2023-04-02T21:29:35.914Z,71.94
2023-04-02T21:32:22.059Z,72.20
2023-04-02T21:35:08.165Z,72.55
2023-04-02T21:37:53.331Z,71.31
2023-04-02T21:40:38.526Z,72.94
2023-04-02T21:43:23.664Z,72.75
2023-04-02T21:46:10.036Z,72.37
2023-04-02T21:48:58.865Z,73.73
2023-04-02T21:51:45.778Z,71.70
2023-04-02T21:54:30.990Z,73.48
2023-04-02T21:57:17.859Z,71.53
2023-04-02T22:00:04.302Z,71.28
2023-04-02T22:02:50.223Z,69.10
2023-04-02T22:05:35.936Z,70.64
2023-04-02T22:08:21.783Z,70.02
2023-04-02T22:11:09.888Z,70.20
2023-04-02T22:13:55.949Z,71.15
2023-04-02T22:16:41.566Z,71.77
2023-04-02T22:19:27.061Z,72.07
2023-04-02T22:22:12.421Z,71.87
2023-04-02T22:24:57.844Z,72.20
2023-04-02T22:27:42.952Z,71.25
2023-04-02T22:30:28.234Z,71.82
2023-04-02T22:33:13.357Z,71.65
2023-04-02T22:35:59.024Z,71.90
2023-04-02T22:38:44.792Z,72.91
2023-04-02T22:41:30.043Z,72.23
2023-04-02T22:44:15.556Z,71.94
2023-04-02T22:47:00.827Z,70.19
2023-04-02T22:49:46.332Z,71.09
2023-04-02T22:52:31.619Z,71.31
2023-04-02T22:55:16.654Z,71.47
2023-04-02T22:58:02.360Z,71.36
2023-04-02T23:00:48.718Z,71.71
2023-04-02T23:03:34.443Z,71.83
2023-04-02T23:06:19.782Z,71.05
2023-04-02T23:09:05.178Z,71.30
2023-04-02T23:11:50.754Z,71.14
2023-04-02T23:14:36.113Z,71.04
2023-04-02T23:17:21.244Z,71.31
2023-04-02T23:20:08.134Z,71.00
2023-04-02T23:22:53.499Z,71.51
2023-04-02T23:25:39.081Z,71.47
2023-04-02T23:28:24.094Z,70.90
2023-04-02T23:31:14.259Z,70.80
2023-04-02T23:33:59.860Z,70.54
2023-04-02T23:36:45.082Z,70.67
2023-04-02T23:39:30.184Z,70.84
2023-04-02T23:42:15.437Z,71.22
2023-04-02T23:45:00.843Z,71.70
2023-04-02T23:47:46.176Z,71.28
2023-04-02T23:50:31.500Z,70.82
2023-04-02T23:53:16.733Z,70.48
2023-04-02T23:56:01.938Z,70.78
2023-04-02T23:58:47.527Z,70.96
